createdAt,value
2018-07-21T00:00:03.829Z,18.87
2018-07-21T00:02:34.679Z,18.82
2018-07-21T00:05:05.682Z,18.78
2018-07-21T00:07:36.660Z,18.75
2018-07-21T00:10:07.683Z,18.73
2018-07-21T00:12:39.056Z,18.70
2018-07-21T00:15:09.754Z,18.68
2018-07-21T00:17:40.694Z,18.63
2018-07-21T00:20:11.604Z,18.60
2018-07-21T00:22:44.815Z,18.58
2018-07-21T00:25:14.689Z,18.53
2018-07-21T00:27:44.789Z,18.52
2018-07-21T00:30:15.714Z,18.49
2018-07-21T00:32:47.169Z,18.46
2018-07-21T00:35:17.873Z,18.43
2018-07-21T00:37:48.870Z,18.40
2018-07-21T00:40:19.692Z,18.35
2018-07-21T00:42:50.632Z,18.33
2018-07-21T00:45:21.641Z,18.29
2018-07-21T00:47:52.638Z,18.27
2018-07-21T00:50:23.611Z,18.22
2018-07-21T00:52:53.670Z,18.20
2018-07-21T00:55:24.621Z,18.17
2018-07-21T00:57:55.673Z,18.13
2018-07-21T01:00:26.684Z,18.08
2018-07-21T01:02:57.710Z,18.04
2018-07-21T01:05:28.802Z,18.01
2018-07-21T01:08:00.628Z,18.00
2018-07-21T01:10:30.597Z,17.98
2018-07-21T01:13:01.682Z,17.94
2018-07-21T01:15:32.652Z,17.92
2018-07-21T01:18:03.621Z,17.87
2018-07-21T01:20:34.729Z,17.84
2018-07-21T01:23:06.136Z,17.80
2018-07-21T01:25:38.421Z,17.77
2018-07-21T01:28:09.569Z,17.60
2018-07-21T01:30:39.577Z,17.71
2018-07-21T01:33:09.542Z,17.68
2018-07-21T01:35:40.561Z,17.65
2018-07-21T01:38:11.613Z,17.62
2018-07-21T01:40:42.873Z,17.58
2018-07-21T01:43:14.142Z,17.56
2018-07-21T01:45:44.752Z,17.53
2018-07-21T01:48:15.781Z,17.51
2018-07-21T01:50:46.795Z,17.47
2018-07-21T01:53:17.704Z,17.46
2018-07-21T01:55:48.697Z,17.42
2018-07-21T01:58:19.813Z,17.40
2018-07-21T02:00:51.140Z,17.36
2018-07-21T02:03:21.942Z,17.35
2018-07-21T02:05:52.784Z,17.30
2018-07-21T02:08:23.741Z,17.26
2018-07-21T02:10:54.653Z,17.23
2018-07-21T02:13:25.597Z,17.19
2018-07-21T02:15:57.279Z,17.10
2018-07-21T02:18:27.910Z,17.14
2018-07-21T02:20:58.692Z,17.12
2018-07-21T02:23:29.699Z,17.09
2018-07-21T02:26:00.607Z,17.09
2018-07-21T02:28:31.724Z,17.05
2018-07-21T02:31:02.676Z,17.04
2018-07-21T02:33:33.638Z,17.02
2018-07-21T02:36:04.658Z,16.99
2018-07-21T02:38:36.086Z,16.96
2018-07-21T02:41:06.828Z,16.93
2018-07-21T02:43:37.848Z,16.90
2018-07-21T02:46:09.150Z,16.87
2018-07-21T02:48:39.909Z,16.88
2018-07-21T02:51:10.675Z,16.86
2018-07-21T02:53:41.687Z,16.83
2018-07-21T02:56:12.679Z,16.79
2018-07-21T02:58:45.101Z,16.76
2018-07-21T03:01:15.084Z,16.72
2018-07-21T03:03:45.797Z,16.68
2018-07-21T03:06:16.671Z,16.66
2018-07-21T03:08:53.369Z,16.63
2018-07-21T03:11:23.307Z,16.60
2018-07-21T03:13:53.266Z,16.59
2018-07-21T03:16:23.716Z,16.55
2018-07-21T03:18:53.675Z,16.53
2018-07-21T03:21:23.633Z,16.51
2018-07-21T03:23:55.320Z,16.50
2018-07-21T03:26:25.252Z,16.49
2018-07-21T03:28:56.212Z,16.47
2018-07-21T03:31:27.969Z,16.46
2018-07-21T03:33:57.925Z,16.43
2018-07-21T03:36:28.740Z,16.44
2018-07-21T03:38:59.690Z,16.43
2018-07-21T03:41:30.678Z,16.43
2018-07-21T03:44:01.651Z,16.41
2018-07-21T03:46:32.479Z,16.41
2018-07-21T03:49:02.485Z,16.40
2018-07-21T03:51:33.441Z,16.39
2018-07-21T03:54:04.588Z,16.39
2018-07-21T03:56:35.630Z,16.39
2018-07-21T03:59:08.321Z,15.96
2018-07-21T04:01:38.199Z,16.40
2018-07-21T04:04:09.946Z,16.37
2018-07-21T04:06:39.851Z,16.35
2018-07-21T04:09:12.677Z,16.36
2018-07-21T04:11:42.582Z,16.33
2018-07-21T04:14:12.548Z,16.37
2018-07-21T04:16:43.495Z,16.40
2018-07-21T04:19:14.684Z,16.45
2018-07-21T04:21:46.527Z,16.42
2018-07-21T04:24:16.593Z,16.47
2018-07-21T04:26:47.678Z,16.48
2018-07-21T04:29:18.637Z,16.51
2018-07-21T04:31:50.083Z,16.55
2018-07-21T04:34:20.754Z,16.60
2018-07-21T04:36:52.036Z,16.62
2018-07-21T04:39:22.751Z,16.60
2018-07-21T04:41:54.687Z,16.63
2018-07-21T04:44:24.676Z,16.67
2018-07-21T04:46:55.728Z,16.67
2018-07-21T04:49:27.564Z,16.69
2018-07-21T04:51:57.521Z,16.73
2018-07-21T04:54:29.397Z,16.78
2018-07-21T04:56:59.363Z,16.84
2018-07-21T04:59:30.790Z,16.92
2018-07-21T05:02:01.698Z,17.00
2018-07-21T05:04:32.658Z,17.04
2018-07-21T05:07:03.575Z,17.13
2018-07-21T05:09:34.478Z,17.18
2018-07-21T05:12:05.951Z,17.26
2018-07-21T05:14:36.652Z,17.30
2018-07-21T05:17:07.518Z,17.40
2018-07-21T05:19:38.549Z,17.47
2018-07-21T05:22:09.443Z,17.39
2018-07-21T05:24:40.767Z,17.63
2018-07-21T05:27:11.713Z,17.72
2018-07-21T05:29:43.135Z,17.85
2018-07-21T05:32:16.063Z,17.95
2018-07-21T05:34:46.625Z,18.08
2018-07-21T05:37:16.593Z,18.30
2018-07-21T05:39:46.487Z,18.57
2018-07-21T05:42:17.764Z,18.94
2018-07-21T05:44:49.139Z,19.17
2018-07-21T05:47:19.741Z,19.33
2018-07-21T05:49:50.662Z,19.57
2018-07-21T05:52:21.581Z,19.69
2018-07-21T05:54:52.879Z,19.75
2018-07-21T05:57:23.586Z,19.87
2018-07-21T05:59:54.489Z,19.81
2018-07-21T06:02:25.378Z,19.99
2018-07-21T06:04:56.699Z,20.06
2018-07-21T06:07:27.468Z,20.16
2018-07-21T06:09:58.796Z,20.28
2018-07-21T06:12:29.648Z,20.29
2018-07-21T06:15:00.537Z,20.28
2018-07-21T06:17:31.390Z,20.35
2018-07-21T06:20:02.991Z,20.47
2018-07-21T06:22:33.713Z,20.51
2018-07-21T06:25:04.876Z,20.60
2018-07-21T06:27:35.634Z,20.70
2018-07-21T06:30:07.306Z,20.78
2018-07-21T06:32:37.833Z,20.86
2018-07-21T06:35:09.061Z,21.01
2018-07-21T06:37:39.690Z,21.07
2018-07-21T06:40:10.635Z,21.16
2018-07-21T06:42:41.624Z,21.33
2018-07-21T06:45:12.522Z,21.39
2018-07-21T06:47:43.475Z,21.43
2018-07-21T06:50:14.557Z,21.53
2018-07-21T06:52:45.494Z,21.66
2018-07-21T06:55:16.423Z,21.67
2018-07-21T06:57:47.318Z,21.67
2018-07-21T07:00:18.741Z,21.71
2018-07-21T07:02:50.687Z,21.78
2018-07-21T07:05:20.920Z,21.89
2018-07-21T07:07:51.782Z,21.96
2018-07-21T07:10:22.961Z,21.99
2018-07-21T07:12:53.886Z,22.13
2018-07-21T07:15:24.632Z,22.29
2018-07-21T07:17:55.808Z,22.34
2018-07-21T07:20:26.721Z,22.42
2018-07-21T07:23:02.933Z,22.53
2018-07-21T07:25:33.723Z,22.75
2018-07-21T07:28:03.597Z,22.85
2018-07-21T07:30:33.490Z,23.02
2018-07-21T07:33:03.367Z,23.14
2018-07-21T07:35:33.321Z,23.30
2018-07-21T07:38:03.787Z,23.37
2018-07-21T07:40:34.602Z,23.66
2018-07-21T07:43:05.479Z,23.64
2018-07-21T07:45:36.402Z,23.73
2018-07-21T07:48:08.025Z,23.95
2018-07-21T07:50:38.635Z,24.02
2018-07-21T07:53:09.576Z,24.12
2018-07-21T07:55:40.442Z,24.12
2018-07-21T07:58:11.322Z,24.14
2018-07-21T08:00:43.078Z,24.25
2018-07-21T08:03:13.693Z,24.27
2018-07-21T08:05:44.520Z,24.49
2018-07-21T08:08:15.349Z,24.57
2018-07-21T08:10:46.789Z,24.66
2018-07-21T08:13:17.540Z,24.71
2018-07-21T08:15:48.398Z,24.78
2018-07-21T08:18:19.728Z,25.02
2018-07-21T08:20:50.660Z,25.09
2018-07-21T08:23:21.463Z,25.18
2018-07-21T08:25:52.365Z,25.26
2018-07-21T08:28:23.311Z,25.22
2018-07-21T08:30:54.697Z,25.40
2018-07-21T08:33:25.445Z,25.51
2018-07-21T08:35:56.467Z,25.53
2018-07-21T08:38:31.372Z,25.68
2018-07-21T08:41:01.289Z,25.81
2018-07-21T08:43:31.105Z,25.92
2018-07-21T08:46:00.964Z,26.06
2018-07-21T08:48:31.730Z,26.14
2018-07-21T08:51:02.587Z,26.21
2018-07-21T08:53:33.835Z,26.37
2018-07-21T08:56:04.664Z,26.49
2018-07-21T08:58:35.633Z,26.60
2018-07-21T09:01:07.577Z,26.61
2018-07-21T09:03:37.441Z,26.79
2018-07-21T09:06:08.367Z,26.81
2018-07-21T09:08:39.626Z,26.96
2018-07-21T09:11:10.466Z,27.23
2018-07-21T09:13:41.355Z,27.19
2018-07-21T09:16:12.561Z,27.23
2018-07-21T09:18:44.195Z,27.29
2018-07-21T09:21:14.724Z,27.31
2018-07-21T09:23:45.515Z,27.45
2018-07-21T09:26:16.416Z,27.55
2018-07-21T09:28:47.723Z,27.81
2018-07-21T09:31:17.932Z,27.92
2018-07-21T09:33:48.569Z,27.87
2018-07-21T09:36:19.386Z,27.86
2018-07-21T09:47:44.014Z,28.40
2018-07-21T09:50:14.270Z,28.52
2018-07-21T09:52:44.068Z,28.70
2018-07-21T09:55:13.877Z,28.81
2018-07-21T09:57:43.935Z,28.95
2018-07-21T10:00:17.751Z,29.24
2018-07-21T10:02:47.851Z,29.07
2018-07-21T10:05:17.674Z,28.82
2018-07-21T10:07:47.730Z,29.01
2018-07-21T10:10:17.674Z,28.70
2018-07-21T10:12:47.760Z,28.79
2018-07-21T10:15:17.665Z,29.12
2018-07-21T10:17:47.600Z,29.45
2018-07-21T10:20:17.743Z,29.52
2018-07-21T10:22:47.801Z,29.65
2018-07-21T10:25:22.623Z,29.79
2018-07-21T10:27:57.387Z,30.19
2018-07-21T10:30:27.207Z,30.38
2018-07-21T10:32:57.069Z,30.54
2018-07-21T10:35:26.961Z,30.62
2018-07-21T10:37:56.953Z,30.61
2018-07-21T10:40:26.872Z,30.72
2018-07-21T10:42:56.852Z,30.88
2018-07-21T10:45:27.109Z,31.05
2018-07-21T10:47:57.263Z,31.17
2018-07-21T10:50:27.156Z,31.30
2018-07-21T10:52:56.996Z,31.30
2018-07-21T10:55:26.822Z,31.46
2018-07-21T10:57:56.656Z,31.57
2018-07-21T11:00:26.607Z,31.70
2018-07-21T11:02:56.632Z,31.76
2018-07-21T11:05:26.643Z,31.94
2018-07-21T11:07:56.811Z,32.16
2018-07-21T11:10:26.728Z,32.44
2018-07-21T11:13:03.472Z,32.61
2018-07-21T11:15:33.657Z,32.65
2018-07-21T11:18:03.784Z,32.74
2018-07-21T11:20:33.668Z,32.80
2018-07-21T11:23:03.765Z,32.79
2018-07-21T11:25:33.589Z,33.04
2018-07-21T11:28:03.744Z,32.96
2018-07-21T11:30:33.626Z,32.97
2018-07-21T11:33:03.456Z,32.99
2018-07-21T11:35:33.619Z,32.90
2018-07-21T11:38:03.725Z,32.96
2018-07-21T11:40:33.581Z,32.96
2018-07-21T11:43:03.704Z,33.28
2018-07-21T11:45:33.726Z,33.45
2018-07-21T11:48:03.973Z,33.43
2018-07-21T11:50:33.845Z,33.68
2018-07-21T11:53:03.691Z,33.83
2018-07-21T11:55:33.678Z,33.79
2018-07-21T11:58:03.580Z,33.84
2018-07-21T12:00:33.604Z,34.02
2018-07-21T12:03:03.751Z,34.24
2018-07-21T12:05:33.697Z,34.35
2018-07-21T12:08:04.063Z,34.38
2018-07-21T12:10:33.836Z,34.43
2018-07-21T12:13:03.737Z,34.40
2018-07-21T12:15:33.757Z,34.54
2018-07-21T12:18:03.707Z,34.73
2018-07-21T12:20:33.658Z,34.66
2018-07-21T12:23:03.629Z,34.15
2018-07-21T12:25:33.644Z,34.42
2018-07-21T12:28:03.637Z,34.49
2018-07-21T12:30:33.769Z,34.57
2018-07-21T12:33:03.591Z,34.65
2018-07-21T12:35:33.699Z,34.85
2018-07-21T12:38:03.679Z,35.05
2018-07-21T12:40:33.598Z,35.24
2018-07-21T12:43:03.664Z,35.37
2018-07-21T12:45:41.393Z,35.36
2018-07-21T12:48:11.220Z,35.42
2018-07-21T12:50:41.059Z,35.39
2018-07-21T12:53:10.926Z,35.36
2018-07-21T12:55:40.740Z,35.45
2018-07-21T12:58:10.698Z,35.45
2018-07-21T13:00:40.650Z,35.54
2018-07-21T13:03:11.063Z,35.50
2018-07-21T13:05:41.064Z,35.16
2018-07-21T13:08:10.978Z,35.16
2018-07-21T13:10:40.790Z,35.18
2018-07-21T13:13:10.630Z,35.20
2018-07-21T13:15:40.594Z,35.24
2018-07-21T13:18:11.426Z,35.19
2018-07-21T13:20:41.318Z,34.73
2018-07-21T13:23:11.252Z,34.66
2018-07-21T13:25:41.157Z,34.91
2018-07-21T13:28:11.139Z,35.01
2018-07-21T13:30:41.466Z,35.09
2018-07-21T13:33:11.754Z,35.00
2018-07-21T13:35:41.654Z,34.72
2018-07-21T13:38:11.617Z,34.41
2018-07-21T13:40:42.125Z,34.31
2018-07-21T13:43:11.949Z,34.30
2018-07-21T13:45:42.024Z,34.27
2018-07-21T13:48:12.382Z,34.26
2018-07-21T13:50:42.557Z,34.17
2018-07-21T13:53:12.704Z,34.16
2018-07-21T13:55:42.594Z,34.12
2018-07-21T13:58:13.041Z,34.15
2018-07-21T14:00:43.044Z,34.24
2018-07-21T14:03:13.540Z,34.15
2018-07-21T14:05:43.344Z,34.14
2018-07-21T14:08:13.177Z,34.30
2018-07-21T14:10:43.299Z,34.33
2018-07-21T14:13:13.295Z,34.40
2018-07-21T14:15:43.283Z,34.32
2018-07-21T14:18:13.175Z,34.25
2018-07-21T14:20:43.073Z,33.99
2018-07-21T14:23:13.486Z,33.60
2018-07-21T14:25:43.310Z,33.34
2018-07-21T14:28:14.093Z,33.46
2018-07-21T14:30:43.975Z,33.54
2018-07-21T14:33:14.691Z,33.63
2018-07-21T14:35:45.560Z,33.53
2018-07-21T14:38:16.719Z,33.47
2018-07-21T14:40:47.569Z,33.63
2018-07-21T14:43:18.733Z,33.69
2018-07-21T14:45:49.542Z,33.78
2018-07-21T14:48:20.408Z,33.71
2018-07-21T14:50:51.391Z,33.72
2018-07-21T14:53:22.371Z,33.47
2018-07-21T14:55:53.364Z,33.52
2018-07-21T14:58:24.763Z,33.55
2018-07-21T15:00:55.571Z,33.40
2018-07-21T15:03:26.577Z,33.29
2018-07-21T15:05:57.360Z,33.43
2018-07-21T15:08:28.714Z,33.57
2018-07-21T15:10:59.673Z,33.76
2018-07-21T15:13:30.569Z,33.81
2018-07-21T15:16:01.442Z,34.03
2018-07-21T15:18:32.886Z,34.11
2018-07-21T15:21:06.689Z,34.14
2018-07-21T15:23:36.661Z,34.25
2018-07-21T15:26:06.666Z,34.30
2018-07-21T15:28:36.513Z,34.28
2018-07-21T15:31:07.383Z,34.36
2018-07-21T15:33:38.312Z,34.46
2018-07-21T15:36:09.988Z,34.37
2018-07-21T15:38:40.705Z,34.24
2018-07-21T15:41:11.497Z,34.33
2018-07-21T15:43:42.433Z,34.40
2018-07-21T15:46:13.372Z,34.03
2018-07-21T15:48:44.794Z,34.18
2018-07-21T15:51:15.634Z,34.29
2018-07-21T15:53:46.463Z,34.30
2018-07-21T15:56:17.349Z,34.29
2018-07-21T15:58:48.776Z,34.19
2018-07-21T16:01:19.671Z,34.19
2018-07-21T16:03:51.512Z,34.00
2018-07-21T16:06:21.344Z,33.97
2018-07-21T16:08:52.808Z,33.99
2018-07-21T16:11:23.590Z,33.81
2018-07-21T16:13:54.447Z,33.91
2018-07-21T16:16:25.518Z,33.89
2018-07-21T16:18:56.792Z,33.72
2018-07-21T16:21:28.075Z,33.29
2018-07-21T16:23:58.759Z,33.44
2018-07-21T16:26:29.524Z,33.07
2018-07-21T16:29:00.411Z,33.18
2018-07-21T16:31:31.906Z,32.95
2018-07-21T16:34:02.620Z,32.97
2018-07-21T16:36:33.445Z,32.70
2018-07-21T16:39:05.385Z,32.82
2018-07-21T16:41:35.321Z,32.79
2018-07-21T16:44:07.388Z,32.73
2018-07-21T16:46:37.386Z,32.75
2018-07-21T16:49:08.381Z,32.67
2018-07-21T16:51:39.385Z,32.70
2018-07-21T16:54:10.391Z,32.66
2018-07-21T16:56:42.469Z,32.63
2018-07-21T16:59:12.371Z,32.62
2018-07-21T17:01:44.347Z,32.52
2018-07-21T17:04:14.249Z,32.37
2018-07-21T17:06:45.595Z,32.25
2018-07-21T17:09:16.402Z,32.23
2018-07-21T17:11:47.295Z,32.21
2018-07-21T17:14:18.628Z,32.17
2018-07-21T17:16:49.445Z,32.15
2018-07-21T17:19:20.380Z,32.07
2018-07-21T17:21:51.688Z,32.06
2018-07-21T17:24:22.566Z,32.06
2018-07-21T17:26:53.712Z,32.03
2018-07-21T17:29:24.547Z,31.88
2018-07-21T17:31:55.163Z,31.79
2018-07-21T17:34:25.724Z,31.69
2018-07-21T17:36:56.942Z,31.56
2018-07-21T17:39:27.626Z,31.44
2018-07-21T17:41:58.452Z,31.38
2018-07-21T17:44:29.373Z,31.25
2018-07-21T17:47:00.747Z,31.16
2018-07-21T17:49:31.598Z,31.09
2018-07-21T17:52:02.397Z,31.00
2018-07-21T17:54:33.377Z,30.90
2018-07-21T17:57:04.842Z,30.82
2018-07-21T17:59:35.565Z,30.75
2018-07-21T18:02:06.526Z,30.66
2018-07-21T18:04:37.553Z,30.54
2018-07-21T18:07:08.388Z,30.50
2018-07-21T18:09:39.693Z,30.44
2018-07-21T18:12:10.473Z,30.31
2018-07-21T18:14:41.414Z,30.21
2018-07-21T18:17:12.389Z,30.12
2018-07-21T18:19:43.442Z,30.01
2018-07-21T18:22:14.338Z,29.93
2018-07-21T18:24:45.670Z,29.82
2018-07-21T18:27:17.612Z,29.73
2018-07-21T18:29:47.408Z,29.62
2018-07-21T18:32:18.669Z,29.52
2018-07-21T18:34:48.543Z,29.45
2018-07-21T18:37:19.355Z,29.33
2018-07-21T18:39:50.853Z,29.22
2018-07-21T18:42:21.552Z,29.10
2018-07-21T18:44:52.491Z,28.99
2018-07-21T18:47:23.949Z,28.90
2018-07-21T18:49:54.656Z,28.79
2018-07-21T18:52:25.397Z,28.68
2018-07-21T18:54:56.416Z,28.60
2018-07-21T18:57:28.282Z,28.41
2018-07-21T18:59:58.702Z,28.42
2018-07-21T19:02:28.509Z,28.32
2018-07-21T19:04:59.427Z,28.24
2018-07-21T19:07:30.331Z,28.14
2018-07-21T19:10:01.690Z,28.00
2018-07-21T19:12:37.569Z,27.22
2018-07-21T19:15:07.518Z,27.74
2018-07-21T19:17:37.329Z,27.62
2018-07-21T19:20:12.259Z,27.48
2018-07-21T19:22:42.354Z,27.35
2018-07-21T19:25:17.232Z,27.24
2018-07-21T19:27:47.080Z,27.19
2018-07-21T19:30:17.055Z,27.10
2018-07-21T19:32:52.283Z,26.92
2018-07-21T19:35:22.122Z,26.92
2018-07-21T19:37:52.493Z,26.87
2018-07-21T19:40:22.359Z,26.77
2018-07-21T19:42:52.254Z,26.70
2018-07-21T19:45:22.183Z,26.59
2018-07-21T19:47:52.152Z,26.49
2018-07-21T19:50:22.107Z,26.36
2018-07-21T19:52:52.024Z,26.26
2018-07-21T19:55:22.109Z,26.19
2018-07-21T19:57:51.891Z,26.13
2018-07-21T20:00:28.418Z,26.06
2018-07-21T20:02:58.214Z,25.97
2018-07-21T20:05:28.125Z,25.94
2018-07-21T20:07:58.077Z,25.85
2018-07-21T20:10:28.055Z,25.79
2018-07-21T20:12:57.937Z,25.69
2018-07-21T20:15:27.751Z,25.63
2018-07-21T20:17:57.645Z,25.56
2018-07-21T20:20:28.439Z,25.51
2018-07-21T20:22:59.421Z,25.41
2018-07-21T20:25:30.690Z,25.29
2018-07-21T20:28:01.562Z,25.23
2018-07-21T20:30:32.436Z,25.11
2018-07-21T20:33:03.493Z,25.02
2018-07-21T20:35:34.391Z,24.95
2018-07-21T20:38:05.843Z,24.92
2018-07-21T20:40:36.710Z,24.86
2018-07-21T20:43:07.728Z,24.77
2018-07-21T20:45:38.642Z,24.72
2018-07-21T20:48:09.617Z,24.67
2018-07-21T20:50:40.474Z,24.64
2018-07-21T20:53:11.824Z,24.59
2018-07-21T20:55:42.687Z,24.53
2018-07-21T20:58:13.566Z,24.44
2018-07-21T21:00:44.444Z,24.39
2018-07-21T21:03:15.529Z,24.34
2018-07-21T21:05:46.567Z,24.28
2018-07-21T21:08:17.783Z,24.20
2018-07-21T21:10:47.761Z,24.12
2018-07-21T21:13:18.740Z,24.07
2018-07-21T21:15:49.739Z,24.01
2018-07-21T21:18:20.828Z,23.95
2018-07-21T21:20:51.782Z,23.87
2018-07-21T21:23:22.696Z,23.83
2018-07-21T21:25:54.262Z,23.77
2018-07-21T21:28:24.722Z,23.68
2018-07-21T21:30:55.823Z,23.63
2018-07-21T21:33:26.581Z,23.57
2018-07-21T21:35:58.659Z,23.53
2018-07-21T21:38:28.787Z,23.43
2018-07-21T21:40:59.646Z,23.32
2018-07-21T21:43:30.514Z,23.22
2018-07-21T21:46:01.447Z,23.12
2018-07-21T21:48:32.924Z,23.05
2018-07-21T21:51:03.649Z,22.98
2018-07-21T21:53:34.557Z,22.94
2018-07-21T21:56:06.070Z,22.84
2018-07-21T21:58:36.637Z,22.81
2018-07-21T22:01:10.407Z,22.78
2018-07-21T22:03:40.212Z,22.71
2018-07-21T22:06:10.142Z,22.67
2018-07-21T22:08:40.854Z,22.60
2018-07-21T22:11:11.773Z,22.56
2018-07-21T22:13:42.663Z,22.50
2018-07-21T22:16:13.498Z,22.44
2018-07-21T22:18:44.523Z,22.40
2018-07-21T22:21:15.813Z,22.35
2018-07-21T22:23:46.678Z,22.30
2018-07-21T22:26:17.569Z,22.24
2018-07-21T22:28:48.898Z,22.20
2018-07-21T22:31:20.234Z,22.15
2018-07-21T22:33:50.765Z,22.09
2018-07-21T22:36:21.681Z,22.04
2018-07-21T22:38:52.523Z,22.01
2018-07-21T22:41:23.424Z,21.99
2018-07-21T22:43:54.326Z,21.95
2018-07-21T22:46:25.770Z,21.92
2018-07-21T22:48:56.649Z,21.90
2018-07-21T22:51:27.536Z,21.85
2018-07-21T22:53:58.379Z,21.80
2018-07-21T22:56:29.753Z,21.76
2018-07-21T22:59:00.610Z,21.73
2018-07-21T23:01:31.497Z,21.68
2018-07-21T23:04:02.754Z,21.63
2018-07-21T23:06:33.656Z,21.60
2018-07-21T23:09:04.863Z,21.54
2018-07-21T23:11:35.610Z,21.50
2018-07-21T23:14:06.590Z,21.47
2018-07-21T23:16:37.535Z,21.42
2018-07-21T23:19:08.837Z,21.36
2018-07-21T23:21:39.683Z,21.31
2018-07-21T23:24:10.554Z,21.29
2018-07-21T23:26:41.765Z,21.24
2018-07-21T23:29:12.586Z,21.22
2018-07-21T23:31:44.115Z,21.20
2018-07-21T23:34:15.058Z,21.15
2018-07-21T23:36:45.678Z,21.10
2018-07-21T23:39:16.543Z,21.07
2018-07-21T23:41:47.463Z,21.03
2018-07-21T23:44:19.223Z,20.99
2018-07-21T23:46:49.665Z,20.95
2018-07-21T23:49:20.539Z,20.88
2018-07-21T23:51:51.422Z,20.84
2018-07-21T23:54:22.430Z,20.80
2018-07-21T23:56:53.380Z,20.75
2018-07-21T23:59:24.868Z,20.68
